-14.51C
пасмурно
пасмурно
Дата и времяТемператураДавление, мм рт.ст.Влажность, %Осадки
МинимумМаксимум
23.02.2024 17:00-15.67C-15.67C77496пасмурно
23.02.2024 20:00-15.6C-15.47C77496пасмурно
23.02.2024 23:00-15.2C-14.97C77296небольшой снег
24.02.2024 02:00-14.32C-14.32C77196небольшой снег
24.02.2024 05:00-13.63C-13.63C77095небольшой снег
24.02.2024 08:00-13.16C-13.16C77095небольшой снег
24.02.2024 11:00-12.1C-12.1C77094небольшой снег
24.02.2024 14:00-10.54C-10.54C77091пасмурно
24.02.2024 17:00-11.97C-11.97C77196пасмурно
24.02.2024 20:00-13.64C-13.64C77197пасмурно
24.02.2024 23:00-12.13C-12.13C77197пасмурно
25.02.2024 02:00-10.6C-10.6C77196небольшой снег
25.02.2024 05:00-10.01C-10.01C77196небольшой снег
25.02.2024 08:00-9.78C-9.78C77196небольшой снег
25.02.2024 11:00-8.57C-8.57C77194небольшой снег
25.02.2024 14:00-7.5C-7.5C77293пасмурно
25.02.2024 17:00-9.79C-9.79C77396пасмурно
25.02.2024 20:00-11.28C-11.28C77497пасмурно
25.02.2024 23:00-11.15C-11.15C77497пасмурно
26.02.2024 02:00-11.54C-11.54C77397пасмурно
26.02.2024 05:00-11.83C-11.83C77397пасмурно
26.02.2024 08:00-12.9C-12.9C77397пасмурно
26.02.2024 11:00-9.95C-9.95C77295пасмурно
26.02.2024 14:00-7.01C-7.01C77194пасмурно
26.02.2024 17:00-6.01C-6.01C77195небольшой снег
26.02.2024 20:00-5.37C-5.37C77196небольшой снег
26.02.2024 23:00-5.36C-5.36C77196небольшой снег
27.02.2024 02:00-5.07C-5.07C77096небольшой снег
27.02.2024 05:00-4.44C-4.44C76996небольшой снег
27.02.2024 08:00-4.11C-4.11C76896небольшой снег
27.02.2024 11:00-2.62C-2.62C76796небольшой снег
27.02.2024 14:00-1.34C-1.34C76597снег
27.02.2024 17:00-1.72C-1.72C76596небольшой снег
27.02.2024 20:00-1.73C-1.73C76596небольшой снег
27.02.2024 23:00-2.19C-2.19C76597пасмурно
28.02.2024 02:00-2.75C-2.75C76597небольшой снег
28.02.2024 05:00-3.83C-3.83C76497небольшой снег
28.02.2024 08:00-3.54C-3.54C76296небольшой снег
28.02.2024 11:00-2.59C-2.59C76194небольшой снег
28.02.2024 14:00-2.34C-2.34C76096небольшой снег
Дата и время наблюдения: 23.02.2024 15:16:16